Time;durP1;ratioP1;P1;durP2;ratioP2;P2;SDS_P1;SDS_P2;PMS_P1;PMS_P2;Temp;Humidity;BMP_temperature;BMP_pressure;BME280_temperature;BME280_humidity;BME280_pressure;Samples;Min_cycle;Max_cycle;Signal;HPM_P1;HPM_P2
2023/05/16 00:00:16;;;;;;;2.87;2.53;;;16.80;79.00;17.00;96026.00;;;;5023147;28;20224;-81
2023/05/16 00:02:43;;;;;;;2.57;2.37;;;16.70;78.90;17.00;96023.00;;;;4987413;28;20685;-82
2023/05/16 00:05:13;;;;;;;2.70;2.50;;;16.70;78.90;17.00;96017.00;;;;5024504;28;20209;-81
2023/05/16 00:07:44;;;;;;;2.70;2.50;;;16.80;79.00;17.00;96011.00;;;;5022035;28;20569;-81
2023/05/16 00:10:13;;;;;;;2.33;2.23;;;16.80;79.00;17.00;96021.00;;;;5013211;28;20209;-81
2023/05/16 00:12:43;;;;;;;2.60;2.40;;;16.70;78.80;17.00;96022.00;;;;5011376;28;20201;-82
2023/05/16 00:15:13;;;;;;;2.60;2.40;;;16.70;78.90;16.90;96014.00;;;;5012922;28;20269;-81
2023/05/16 00:17:45;;;;;;;2.73;2.53;;;16.70;78.90;16.90;96017.00;;;;5027316;28;20193;-81
2023/05/16 00:20:16;;;;;;;2.57;2.37;;;16.70;79.00;16.90;96017.00;;;;5013579;28;20241;-81
2023/05/16 00:22:43;;;;;;;2.63;2.43;;;16.70;78.80;16.90;96023.00;;;;5031483;28;20307;-81
2023/05/16 00:25:11;;;;;;;2.93;2.63;;;16.70;78.80;16.90;96020.00;;;;5006084;28;20189;-82
2023/05/16 00:27:39;;;;;;;2.60;2.40;;;16.70;78.80;16.90;96020.00;;;;5012014;28;20198;-82
2023/05/16 00:30:09;;;;;;;3.00;2.80;;;16.70;78.90;16.90;96017.00;;;;5031968;28;20775;-81
2023/05/16 00:32:37;;;;;;;2.90;2.70;;;16.60;78.90;16.90;96012.00;;;;5030380;28;20289;-79
2023/05/16 00:35:06;;;;;;;2.80;2.60;;;16.60;79.00;16.90;96013.00;;;;5016215;28;20277;-81
2023/05/16 00:37:33;;;;;;;2.50;2.40;;;16.60;79.10;16.90;96013.00;;;;5021552;28;20208;-81
2023/05/16 00:40:01;;;;;;;2.70;2.60;;;16.60;79.10;16.80;96005.00;;;;5025022;28;20316;-81
2023/05/16 00:42:30;;;;;;;2.90;2.70;;;16.60;79.10;16.80;96011.00;;;;5026935;28;20623;-81
2023/05/16 00:44:57;;;;;;;2.77;2.63;;;16.60;79.00;16.80;96007.00;;;;5022580;28;20205;-81
2023/05/16 00:47:25;;;;;;;2.67;2.47;;;16.60;79.00;16.80;96006.00;;;;5024982;28;20201;-81
2023/05/16 00:49:52;;;;;;;3.20;2.87;;;16.60;78.90;16.80;96012.00;;;;5017038;28;20641;-81
2023/05/16 00:52:20;;;;;;;2.90;2.70;;;16.50;78.80;16.80;96004.00;;;;5009053;28;20244;-82
2023/05/16 00:54:47;;;;;;;2.90;2.70;;;16.50;78.80;16.70;96010.00;;;;5029521;28;20869;-81
2023/05/16 00:57:15;;;;;;;2.90;2.70;;;16.50;79.00;16.70;96013.00;;;;5009559;28;20726;-81
2023/05/16 00:59:46;;;;;;;3.03;2.83;;;16.50;79.20;16.70;96014.00;;;;5007139;28;20226;-82
2023/05/16 01:02:13;;;;;;;3.27;2.97;;;16.50;79.20;16.70;96008.00;;;;5022753;28;20563;-80
2023/05/16 01:04:41;;;;;;;2.97;2.77;;;16.50;79.20;16.70;96006.00;;;;5020053;28;20289;-81
2023/05/16 01:07:09;;;;;;;4.17;3.10;;;16.50;79.20;16.70;96009.00;;;;5020695;28;20284;-81
2023/05/16 01:09:37;;;;;;;3.17;2.87;;;16.50;79.10;16.70;96009.00;;;;5025104;22;20229;-85
2023/05/16 01:12:16;;;;;;;3.27;3.07;;;16.50;79.20;16.60;95999.00;;;;5040493;28;20571;-85
2023/05/16 01:14:57;;;;;;;3.13;2.93;;;16.40;79.00;16.60;96007.00;;;;5041890;28;20583;-85
2023/05/16 01:17:38;;;;;;;3.10;2.90;;;16.50;78.90;16.60;95996.00;;;;5039318;28;20224;-85
2023/05/16 01:20:17;;;;;;;3.10;2.90;;;16.50;78.90;16.60;95996.00;;;;5042080;28;20241;-85
2023/05/16 01:23:05;;;;;;;3.03;2.83;;;16.40;78.90;16.60;96001.00;;;;5023328;28;20587;-85
2023/05/16 01:25:56;;;;;;;3.03;2.83;;;16.40;78.60;16.60;96002.00;;;;5043111;28;20557;-85
2023/05/16 01:28:26;;;;;;;3.07;2.77;;;16.40;78.80;16.60;95992.00;;;;5019012;28;20204;-84
2023/05/16 01:30:53;;;;;;;3.33;3.13;;;16.40;79.00;16.60;95992.00;;;;5036649;28;20633;-84
2023/05/16 01:33:22;;;;;;;3.30;3.00;;;16.40;79.00;16.50;95979.00;;;;5022177;28;20197;-84
2023/05/16 01:36:03;;;;;;;3.07;2.87;;;16.40;79.00;16.50;95986.00;;;;4997744;28;20193;-83
2023/05/16 01:38:40;;;;;;;3.10;2.90;;;16.30;78.80;16.50;95976.00;;;;5041816;28;20255;-83
2023/05/16 01:41:21;;;;;;;3.90;3.60;;;16.30;78.90;16.50;95975.00;;;;5048523;28;20254;-84
2023/05/16 01:43:59;;;;;;;3.83;3.53;;;16.30;78.80;16.40;95977.00;;;;5034012;28;20682;-83
2023/05/16 01:46:31;;;;;;;3.33;3.03;;;16.30;78.70;16.40;95980.00;;;;5036735;28;20197;-83
2023/05/16 01:49:15;;;;;;;3.53;3.30;;;16.30;78.80;16.40;95972.00;;;;5032343;28;20218;-84
2023/05/16 01:51:47;;;;;;;3.77;3.50;;;16.30;78.80;16.40;95974.00;;;;5033851;28;20280;-83
2023/05/16 01:54:20;;;;;;;3.30;3.10;;;16.20;79.00;16.40;95975.00;;;;5033364;28;20600;-83
2023/05/16 01:56:54;;;;;;;3.60;3.40;;;16.20;79.10;16.40;95976.00;;;;5034274;28;20310;-84
2023/05/16 01:59:25;;;;;;;3.90;3.60;;;16.20;79.20;16.40;95970.00;;;;5031092;28;20684;-83
2023/05/16 02:01:54;;;;;;;3.50;3.30;;;16.20;79.30;16.30;95973.00;;;;5041914;28;20255;-84
2023/05/16 02:04:23;;;;;;;3.50;3.30;;;16.20;79.40;16.30;95973.00;;;;5027105;28;20660;-84
2023/05/16 02:06:51;;;;;;;4.13;3.83;;;16.20;79.40;16.40;95980.00;;;;5022232;28;20197;-83
2023/05/16 02:09:19;;;;;;;3.97;3.67;;;16.20;79.40;16.30;95978.00;;;;5029562;28;20231;-84
2023/05/16 02:11:47;;;;;;;4.00;3.60;;;16.20;79.40;16.30;95967.00;;;;5047028;28;20197;-83
2023/05/16 02:14:14;;;;;;;3.80;3.50;;;16.20;79.40;16.30;95977.00;;;;5030876;28;20205;-84
2023/05/16 02:16:43;;;;;;;3.73;3.53;;;16.10;79.40;16.30;95979.00;;;;5037271;28;20202;-82
2023/05/16 02:19:10;;;;;;;4.10;3.70;;;16.10;79.20;16.30;95979.00;;;;5039473;28;20775;-83
2023/05/16 02:21:37;;;;;;;4.10;3.80;;;16.10;79.30;16.30;95976.00;;;;5043020;28;20232;-83
2023/05/16 02:24:05;;;;;;;3.67;3.47;;;16.10;79.30;16.30;95967.00;;;;5037171;28;20565;-84
2023/05/16 02:26:33;;;;;;;4.40;4.10;;;16.10;79.30;16.30;95967.00;;;;5051700;28;20211;-84
2023/05/16 02:29:00;;;;;;;4.10;3.80;;;16.10;79.40;16.30;95979.00;;;;5036625;28;20224;-84
2023/05/16 02:31:29;;;;;;;4.10;3.80;;;16.10;79.50;16.30;95978.00;;;;5046952;28;20748;-83
2023/05/16 02:34:02;;;;;;;3.93;3.63;;;16.10;79.50;16.30;95975.00;;;;5037800;28;20188;-84
2023/05/16 02:36:33;;;;;;;4.47;4.07;;;16.10;79.50;16.30;95985.00;;;;5044830;28;20207;-84
2023/05/16 02:39:00;;;;;;;4.20;3.80;;;16.10;79.60;16.20;95988.00;;;;5016743;28;20271;-83
2023/05/16 02:41:28;;;;;;;4.77;4.37;;;16.10;79.50;16.20;95985.00;;;;5033954;28;20197;-84
2023/05/16 02:43:55;;;;;;;4.30;3.90;;;16.00;79.40;16.20;95999.00;;;;5005042;28;20193;-84
2023/05/16 02:46:25;;;;;;;4.00;3.70;;;16.00;79.50;16.20;95993.00;;;;5018768;28;20193;-84
2023/05/16 02:48:53;;;;;;;3.87;3.60;;;16.00;79.60;16.20;95989.00;;;;5015062;28;20228;-83
2023/05/16 02:51:25;;;;;;;6.00;4.10;;;16.00;79.60;16.20;95984.00;;;;5033513;28;20193;-84
2023/05/16 02:53:56;;;;;;;3.97;3.67;;;16.00;79.40;16.20;95994.00;;;;5030035;28;20197;-84
2023/05/16 02:56:23;;;;;;;4.33;3.93;;;16.00;79.60;16.20;95997.00;;;;5039096;28;20578;-84
2023/05/16 02:58:50;;;;;;;4.80;4.40;;;16.00;79.70;16.20;95994.00;;;;5026784;28;20203;-83
2023/05/16 03:01:18;;;;;;;4.37;4.07;;;16.00;79.70;16.20;95996.00;;;;5032910;28;20201;-84
2023/05/16 03:03:46;;;;;;;4.40;4.00;;;16.00;79.70;16.20;95994.00;;;;5021227;28;20219;-84
2023/05/16 03:06:14;;;;;;;4.37;4.07;;;16.00;79.70;16.20;95991.00;;;;5041269;28;20762;-84
2023/05/16 03:08:43;;;;;;;4.67;3.97;;;16.00;79.90;16.20;95990.00;;;;5038086;28;20510;-83
2023/05/16 03:11:13;;;;;;;4.70;4.30;;;16.00;79.80;16.20;95993.00;;;;5030407;28;20201;-83
2023/05/16 03:13:41;;;;;;;4.27;3.97;;;16.00;79.70;16.20;95987.00;;;;5014084;28;20223;-84
2023/05/16 03:16:09;;;;;;;4.07;3.77;;;15.90;79.70;16.20;95987.00;;;;5039978;28;20197;-84
2023/05/16 03:18:36;;;;;;;4.27;3.97;;;15.90;79.80;16.20;95988.00;;;;5037495;28;20199;-83
2023/05/16 03:21:05;;;;;;;4.53;4.23;;;15.90;79.80;16.10;95986.00;;;;4999781;28;20293;-84
2023/05/16 03:23:32;;;;;;;5.03;4.60;;;15.90;79.80;16.10;95984.00;;;;5044474;28;20201;-83
2023/05/16 03:26:01;;;;;;;4.40;4.10;;;15.90;79.80;16.10;95978.00;;;;5017349;28;20263;-84
2023/05/16 03:28:28;;;;;;;4.53;4.23;;;15.90;79.70;16.10;95982.00;;;;5038316;28;20669;-83
2023/05/16 03:30:55;;;;;;;4.70;4.30;;;15.90;79.90;16.10;95981.00;;;;5044689;28;20306;-84
2023/05/16 03:33:23;;;;;;;4.80;4.50;;;15.90;79.90;16.10;95989.00;;;;5029916;28;20205;-83
2023/05/16 03:35:51;;;;;;;4.73;4.43;;;15.90;79.70;16.10;95980.00;;;;5024533;28;20194;-83
2023/05/16 03:38:21;;;;;;;4.67;4.37;;;15.90;79.80;16.10;95987.00;;;;5029412;28;20198;-83
2023/05/16 03:40:48;;;;;;;4.67;4.30;;;15.90;79.80;16.10;95982.00;;;;5031605;28;20225;-83
2023/05/16 03:43:16;;;;;;;4.97;4.50;;;15.90;79.90;16.00;95983.00;;;;5031943;28;20669;-83
2023/05/16 03:45:44;;;;;;;5.13;4.73;;;15.90;79.90;16.00;95987.00;;;;5032818;28;20199;-83
2023/05/16 03:48:12;;;;;;;4.83;4.30;;;15.90;79.90;16.00;95983.00;;;;5009481;28;20205;-84
2023/05/16 03:50:40;;;;;;;4.67;4.37;;;15.90;79.90;16.00;95978.00;;;;5013630;28;20312;-83
2023/05/16 03:53:09;;;;;;;4.50;4.20;;;15.80;79.80;16.00;95976.00;;;;5031242;28;20280;-84
2023/05/16 03:55:40;;;;;;;5.23;4.73;;;15.80;79.90;16.00;95983.00;;;;5019319;28;20588;-83
2023/05/16 03:58:07;;;;;;;5.13;4.73;;;15.80;79.90;16.00;95978.00;;;;5014250;28;20224;-84
2023/05/16 04:00:39;;;;;;;4.93;4.57;;;15.80;80.00;16.00;95978.00;;;;5026935;28;20233;-84
2023/05/16 04:03:07;;;;;;;5.20;4.80;;;15.80;80.00;16.00;95987.00;;;;5024320;28;20201;-84
2023/05/16 04:05:38;;;;;;;5.10;4.60;;;15.80;80.20;16.00;95978.00;;;;5012915;28;20740;-83
2023/05/16 04:08:05;;;;;;;5.90;5.30;;;15.80;80.00;16.00;95978.00;;;;5037042;28;20285;-83
2023/05/16 04:10:33;;;;;;;4.80;4.50;;;15.80;80.10;16.00;95977.00;;;;5033197;28;20293;-84
2023/05/16 04:13:00;;;;;;;4.87;4.50;;;15.80;80.00;16.00;95986.00;;;;5049527;28;20197;-83
2023/05/16 04:15:27;;;;;;;5.17;4.77;;;15.80;79.90;16.00;95984.00;;;;5022720;28;20572;-84
2023/05/16 04:17:58;;;;;;;5.97;5.47;;;15.80;80.10;16.00;95986.00;;;;5035794;28;20203;-83
2023/05/16 04:20:26;;;;;;;5.50;5.10;;;15.80;80.00;16.00;95977.00;;;;5015022;28;20221;-84
2023/05/16 04:22:53;;;;;;;5.50;5.10;;;15.80;80.10;16.00;95979.00;;;;5020262;28;20605;-83
2023/05/16 04:25:20;;;;;;;5.53;5.03;;;15.80;80.10;16.00;95988.00;;;;5039272;28;20200;-83
2023/05/16 04:27:48;;;;;;;5.10;4.70;;;15.80;80.20;15.90;95988.00;;;;5041881;28;20672;-85
2023/05/16 04:30:16;;;;;;;5.83;5.13;;;15.70;80.10;15.90;95989.00;;;;5019796;28;20227;-85
2023/05/16 04:32:43;;;;;;;5.50;5.07;;;15.70;80.00;16.00;95989.00;;;;5037406;28;20688;-86
2023/05/16 04:35:12;;;;;;;5.10;4.70;;;15.70;80.00;16.00;95992.00;;;;5035807;28;20206;-86
2023/05/16 04:37:40;;;;;;;5.47;5.07;;;15.70;80.10;16.00;95992.00;;;;5029638;28;20201;-86
2023/05/16 04:40:09;;;;;;;5.03;4.63;;;15.70;80.20;16.00;95991.00;;;;5036664;28;20243;-85
2023/05/16 04:42:36;;;;;;;5.10;4.80;;;15.70;80.20;16.00;95993.00;;;;5042572;28;20648;-86
2023/05/16 04:45:05;;;;;;;6.00;5.50;;;15.70;80.00;16.10;95994.00;;;;5032399;28;20684;-87
2023/05/16 04:47:33;;;;;;;5.10;4.70;;;15.70;80.00;16.10;95993.00;;;;5027146;28;20204;-86
2023/05/16 04:50:00;;;;;;;5.23;4.83;;;15.70;80.00;16.10;95994.00;;;;5031738;28;20566;-86
2023/05/16 04:52:29;;;;;;;5.50;5.10;;;15.70;80.10;16.10;95987.00;;;;5038282;28;20209;-85
2023/05/16 04:54:59;;;;;;;4.93;4.63;;;15.70;80.20;16.10;95995.00;;;;5044807;28;20199;-86
2023/05/16 04:57:26;;;;;;;5.73;4.83;;;15.70;80.20;16.10;96001.00;;;;5032323;28;20243;-85
2023/05/16 04:59:55;;;;;;;5.67;5.27;;;15.70;80.20;16.10;95998.00;;;;5041227;28;20787;-85
2023/05/16 05:02:24;;;;;;;5.37;4.97;;;15.80;80.50;16.10;95992.00;;;;5030242;28;20206;-86
2023/05/16 05:04:53;;;;;;;4.97;4.67;;;15.80;80.70;16.20;95995.00;;;;5047157;28;20265;-85
2023/05/16 05:07:21;;;;;;;5.27;4.87;;;15.80;80.70;16.20;95994.00;;;;5029014;28;20197;-84
2023/05/16 05:09:51;;;;;;;5.33;4.87;;;15.80;80.50;16.20;96000.00;;;;5031252;28;20232;-85
2023/05/16 05:12:21;;;;;;;5.70;5.20;;;15.80;80.40;16.20;95994.00;;;;5031007;28;20198;-87
2023/05/16 05:14:49;;;;;;;5.30;4.80;;;15.80;80.50;16.20;95996.00;;;;5039606;28;20205;-86
2023/05/16 05:17:17;;;;;;;6.00;5.40;;;15.80;80.50;16.20;95998.00;;;;5042780;28;20228;-86
2023/05/16 05:19:47;;;;;;;5.87;5.40;;;15.90;80.50;16.20;95996.00;;;;5040461;28;20253;-85
2023/05/16 05:22:16;;;;;;;5.80;5.30;;;15.90;80.70;16.30;96005.00;;;;5012535;28;20276;-86
2023/05/16 05:24:44;;;;;;;5.53;5.13;;;15.90;80.80;16.30;95995.00;;;;5021451;28;20292;-87
2023/05/16 05:27:14;;;;;;;4.90;4.50;;;15.90;80.70;16.40;96005.00;;;;5013457;28;20190;-87
2023/05/16 05:29:42;;;;;;;5.33;4.93;;;16.00;80.90;16.40;95991.00;;;;5023908;28;20224;-87
2023/05/16 05:32:10;;;;;;;5.03;4.63;;;16.00;81.00;16.40;96003.00;;;;5023573;28;20201;-86
2023/05/16 05:34:38;;;;;;;5.53;5.03;;;16.00;80.90;16.40;95998.00;;;;5029324;28;20264;-85
2023/05/16 05:37:07;;;;;;;5.70;5.20;;;16.00;80.90;16.40;95996.00;;;;5014821;28;20572;-86
2023/05/16 05:39:35;;;;;;;5.83;5.20;;;16.10;80.90;16.50;95998.00;;;;5032219;28;20256;-86
2023/05/16 05:42:03;;;;;;;6.97;5.67;;;16.10;80.80;16.50;95994.00;;;;5031109;28;20223;-85
2023/05/16 05:44:32;;;;;;;5.43;5.07;;;16.10;80.80;16.50;95988.00;;;;5028916;28;20701;-86
2023/05/16 05:46:59;;;;;;;5.10;4.70;;;16.10;80.70;16.50;95995.00;;;;5048813;28;20216;-85
2023/05/16 05:49:27;;;;;;;5.60;5.17;;;16.20;80.70;16.50;95987.00;;;;5060008;28;20217;-85
2023/05/16 05:51:55;;;;;;;5.40;4.93;;;16.20;80.70;16.50;95987.00;;;;5061537;28;20212;-85
2023/05/16 05:54:23;;;;;;;4.90;4.50;;;16.20;80.70;16.50;95987.00;;;;5035076;28;20266;-85
2023/05/16 05:56:50;;;;;;;5.87;5.37;;;16.20;80.70;16.50;95987.00;;;;5051015;28;20213;-86
2023/05/16 05:59:17;;;;;;;5.70;5.20;;;16.20;80.50;16.50;95982.00;;;;5052614;28;20280;-84
2023/05/16 06:01:51;;;;;;;5.27;4.77;;;16.20;80.40;16.50;95992.00;;;;5044952;28;20785;-85
2023/05/16 06:04:18;;;;;;;5.07;4.60;;;16.20;80.30;16.50;95988.00;;;;5036077;28;20201;-85
2023/05/16 06:06:46;;;;;;;5.87;5.27;;;16.20;80.30;16.50;95987.00;;;;5046479;28;20228;-86
2023/05/16 06:09:14;;;;;;;5.40;4.90;;;16.20;80.30;16.50;95987.00;;;;5057622;28;20230;-85
2023/05/16 06:11:41;;;;;;;5.37;4.87;;;16.20;80.30;16.60;95989.00;;;;5033282;28;20287;-85
2023/05/16 06:14:08;;;;;;;5.20;4.80;;;16.30;80.30;16.60;95991.00;;;;5035740;28;20265;-86
2023/05/16 06:16:38;;;;;;;5.30;4.90;;;16.30;80.30;16.60;95989.00;;;;5032650;28;20205;-88
2023/05/16 06:19:07;;;;;;;5.50;5.00;;;16.30;80.40;16.60;95983.00;;;;5032392;28;20352;-88
2023/05/16 06:21:34;;;;;;;5.23;4.83;;;16.30;80.50;16.60;95985.00;;;;5031126;28;20225;-88
2023/05/16 06:24:02;;;;;;;5.33;4.83;;;16.30;80.60;16.60;95979.00;;;;5033061;28;20721;-88
2023/05/16 06:26:29;;;;;;;5.13;4.83;;;16.30;80.60;16.60;95985.00;;;;5016054;28;20201;-88
2023/05/16 06:28:56;;;;;;;6.53;5.17;;;16.30;80.60;16.60;95990.00;;;;5032076;28;21925;-88
2023/05/16 06:31:24;;;;;;;5.53;5.07;;;16.30;80.80;16.60;95985.00;;;;4990984;28;20204;-88
2023/05/16 06:33:51;;;;;;;6.03;5.10;;;16.30;81.00;16.60;95992.00;;;;5027630;28;20799;-85
2023/05/16 06:36:20;;;;;;;5.13;4.83;;;16.30;80.90;16.70;95983.00;;;;5014986;28;20193;-86
2023/05/16 06:38:47;;;;;;;5.13;4.73;;;16.40;81.00;16.70;95997.00;;;;5012186;28;20297;-85
2023/05/16 06:41:14;;;;;;;5.33;4.93;;;16.40;81.10;16.70;96011.00;;;;5026940;28;20225;-86
2023/05/16 06:43:43;;;;;;;5.87;5.37;;;16.40;81.10;16.70;96000.00;;;;5029513;28;20201;-86
2023/05/16 06:46:13;;;;;;;5.73;5.33;;;16.40;81.00;16.70;95999.00;;;;5030434;28;20201;-87
2023/05/16 06:48:41;;;;;;;5.33;4.93;;;16.40;80.80;16.70;95993.00;;;;5032135;28;20201;-85
2023/05/16 06:51:09;;;;;;;4.73;4.33;;;16.40;80.70;16.70;95997.00;;;;5030321;28;20658;-84
2023/05/16 06:53:39;;;;;;;5.30;4.90;;;16.40;80.60;16.70;95990.00;;;;5029686;28;20292;-87
2023/05/16 06:56:07;;;;;;;5.90;5.13;;;16.40;80.50;16.70;95989.00;;;;5001702;28;20196;-86
2023/05/16 06:58:35;;;;;;;5.77;5.37;;;16.40;80.50;16.70;95995.00;;;;5020721;28;20206;-85
2023/05/16 07:01:03;;;;;;;5.10;4.70;;;16.40;80.50;16.80;95987.00;;;;5042717;28;20255;-86
2023/05/16 07:03:31;;;;;;;5.77;5.27;;;16.40;80.50;16.80;95999.00;;;;5035517;28;20205;-86
2023/05/16 07:05:59;;;;;;;5.23;4.83;;;16.40;80.50;16.80;95989.00;;;;5036502;28;20204;-87
2023/05/16 07:08:27;;;;;;;4.93;4.53;;;16.50;80.70;16.80;95995.00;;;;5051698;28;20216;-86
2023/05/16 07:10:56;;;;;;;5.37;4.93;;;16.50;80.70;16.90;96006.00;;;;5074687;22;20326;-82
2023/05/16 07:13:23;;;;;;;5.87;5.30;;;16.50;80.80;16.90;96008.00;;;;5075016;28;20278;-82
2023/05/16 07:15:50;;;;;;;5.83;5.20;;;16.50;80.90;17.00;96009.00;;;;5040001;28;20283;-82
2023/05/16 07:18:18;;;;;;;5.00;4.60;;;16.60;80.90;17.00;96015.00;;;;5055574;28;20249;-81
2023/05/16 07:20:46;;;;;;;5.13;4.73;;;16.60;80.90;17.00;96009.00;;;;5020912;28;20420;-81
2023/05/16 07:23:13;;;;;;;5.73;5.30;;;16.60;80.80;17.10;96009.00;;;;5037990;28;20219;-81
2023/05/16 07:25:40;;;;;;;5.10;4.70;;;16.70;80.50;17.10;96002.00;;;;5048759;28;20280;-80
2023/05/16 07:28:09;;;;;;;5.10;4.70;;;16.70;80.60;17.10;96004.00;;;;5061631;28;20752;-81
2023/05/16 07:30:36;;;;;;;5.23;4.83;;;16.70;80.50;17.20;96002.00;;;;5065175;28;20247;-81
2023/05/16 07:33:04;;;;;;;4.93;4.60;;;16.80;80.70;17.30;95999.00;;;;5039279;28;20753;-80
2023/05/16 07:35:31;;;;;;;5.33;4.93;;;16.80;80.80;17.30;95997.00;;;;5072792;28;20212;-81
2023/05/16 07:37:59;;;;;;;5.47;5.07;;;16.90;80.70;17.40;96007.00;;;;5064326;28;20280;-81
2023/05/16 07:40:28;;;;;;;5.20;4.80;;;16.90;80.50;17.50;96007.00;;;;5063972;28;20228;-81
2023/05/16 07:42:55;;;;;;;5.77;4.87;;;17.00;80.60;17.60;96007.00;;;;5054101;28;20246;-81
2023/05/16 07:45:24;;;;;;;5.20;4.80;;;17.00;80.40;17.60;96009.00;;;;5061076;28;20289;-81
2023/05/16 07:47:51;;;;;;;5.00;4.60;;;17.10;80.20;17.70;96018.00;;;;5049027;28;20197;-81
2023/05/16 07:50:19;;;;;;;5.57;5.17;;;17.20;80.40;17.80;96016.00;;;;5053247;28;20258;-81
2023/05/16 07:52:46;;;;;;;5.33;4.93;;;17.20;80.60;17.90;96022.00;;;;5050259;28;20228;-81
2023/05/16 07:55:20;;;;;;;5.13;4.73;;;17.30;80.70;18.10;96024.00;;;;5034208;28;20259;-82
2023/05/16 07:57:49;;;;;;;5.20;4.80;;;17.40;80.20;18.20;96030.00;;;;5061828;28;20249;-81
2023/05/16 08:00:21;;;;;;;5.13;4.77;;;17.50;80.60;18.30;96028.00;;;;5029517;28;20224;-80
2023/05/16 08:02:49;;;;;;;5.07;4.67;;;17.60;80.50;18.40;96029.00;;;;5054046;28;20213;-82
2023/05/16 08:05:17;;;;;;;4.93;4.53;;;17.70;80.20;18.50;96033.00;;;;5031819;28;20200;-80
2023/05/16 08:07:45;;;;;;;5.27;4.87;;;17.80;79.50;18.50;96032.00;;;;5059639;28;20206;-80
2023/05/16 08:10:12;;;;;;;5.20;4.70;;;17.90;79.20;18.60;96041.00;;;;5057290;28;20258;-80
2023/05/16 08:12:39;;;;;;;5.30;4.93;;;18.00;79.50;18.70;96041.00;;;;5054358;28;20203;-80
2023/05/16 08:15:09;;;;;;;4.90;4.50;;;18.00;79.30;18.70;96036.00;;;;5064309;28;20292;-81
2023/05/16 08:17:37;;;;;;;5.40;4.97;;;18.10;79.10;18.70;96041.00;;;;5052794;28;20212;-81
2023/05/16 08:20:07;;;;;;;5.20;4.80;;;18.20;79.10;18.70;96037.00;;;;5058306;28;20211;-81
2023/05/16 08:22:35;;;;;;;5.80;5.17;;;18.20;79.00;18.80;96043.00;;;;5089579;28;20219;-81
2023/05/16 08:25:04;;;;;;;4.87;4.50;;;18.20;79.00;18.80;96048.00;;;;5078480;28;20672;-82
2023/05/16 08:27:31;;;;;;;5.43;5.10;;;18.30;79.00;18.80;96037.00;;;;5044453;28;20287;-81
2023/05/16 08:29:58;;;;;;;5.30;5.00;;;18.30;78.60;18.80;96040.00;;;;5056443;28;20304;-81
2023/05/16 08:32:26;;;;;;;5.50;5.10;;;18.30;78.60;18.80;96045.00;;;;5064616;28;20261;-81
2023/05/16 08:34:54;;;;;;;5.87;4.93;;;18.30;78.20;18.70;96044.00;;;;5047965;28;20566;-81
2023/05/16 08:37:22;;;;;;;5.63;5.03;;;18.30;78.00;18.70;96042.00;;;;5046201;28;20624;-81
2023/05/16 08:39:50;;;;;;;5.00;4.60;;;18.30;78.00;18.70;96038.00;;;;5038718;28;20216;-81
2023/05/16 08:42:17;;;;;;;5.77;5.27;;;18.30;78.00;18.70;96040.00;;;;5047288;28;20231;-81
2023/05/16 08:44:45;;;;;;;5.23;4.83;;;18.30;77.90;18.70;96040.00;;;;5046597;28;20211;-80
2023/05/16 08:47:18;;;;;;;5.30;4.90;;;18.30;78.10;18.70;96044.00;;;;5056557;28;20283;-81
2023/05/16 08:49:48;;;;;;;5.03;4.73;;;18.30;78.00;18.70;96039.00;;;;5033422;28;20223;-81
2023/05/16 08:52:21;;;;;;;5.97;5.50;;;18.30;77.80;18.70;96039.00;;;;5069344;28;20672;-81
2023/05/16 08:54:51;;;;;;;5.30;4.80;;;18.30;77.60;18.70;96044.00;;;;5051775;28;20279;-81
2023/05/16 08:57:20;;;;;;;5.20;4.70;;;18.30;77.60;18.60;96043.00;;;;5061571;28;20231;-81
2023/05/16 08:59:48;;;;;;;5.13;4.77;;;18.30;77.60;18.60;96041.00;;;;5067969;28;20306;-82
2023/05/16 09:02:16;;;;;;;5.30;4.93;;;18.30;77.70;18.60;96048.00;;;;5055820;28;20230;-81
2023/05/16 09:04:46;;;;;;;5.60;5.20;;;18.30;77.70;18.60;96041.00;;;;5059762;28;20283;-81
2023/05/16 09:07:14;;;;;;;5.37;4.97;;;18.30;77.80;18.60;96041.00;;;;5076709;28;20748;-80
2023/05/16 09:09:42;;;;;;;5.80;5.10;;;18.30;78.70;18.60;96031.00;;;;5042781;28;20228;-82
2023/05/16 09:12:10;;;;;;;5.73;5.20;;;18.30;78.20;18.60;96030.00;;;;5070130;28;20294;-82
2023/05/16 09:14:38;;;;;;;4.97;4.63;;;18.20;78.50;18.60;96036.00;;;;5069298;28;20283;-81
2023/05/16 09:17:08;;;;;;;6.00;5.40;;;18.20;78.80;18.60;96036.00;;;;5053208;28;20292;-82
2023/05/16 09:19:39;;;;;;;5.47;5.07;;;18.20;79.20;18.60;96035.00;;;;5056758;28;20713;-81
2023/05/16 09:22:09;;;;;;;6.20;5.67;;;18.20;79.40;18.50;96037.00;;;;5048361;28;20220;-81
2023/05/16 09:24:39;;;;;;;4.87;4.57;;;18.20;79.80;18.50;96035.00;;;;5058265;28;20277;-82
2023/05/16 09:27:13;;;;;;;5.60;5.20;;;18.20;79.90;18.60;96042.00;;;;5062251;28;20196;-81
2023/05/16 09:29:41;;;;;;;5.27;4.87;;;18.20;79.90;18.60;96042.00;;;;5055258;28;20225;-80
2023/05/16 09:32:13;;;;;;;5.40;5.00;;;18.20;80.00;18.60;96043.00;;;;5038194;28;20227;-79
2023/05/16 09:34:43;;;;;;;5.80;5.40;;;18.20;80.00;18.60;96028.00;;;;5072521;28;20290;-81
2023/05/16 09:37:11;;;;;;;6.03;5.43;;;18.20;80.00;18.60;96022.00;;;;5047150;28;20196;-80
2023/05/16 09:39:45;;;;;;;5.60;5.20;;;18.20;80.20;18.60;96023.00;;;;5054812;28;20219;-81
2023/05/16 09:42:15;;;;;;;5.30;4.90;;;18.20;80.20;18.60;96029.00;;;;5049243;28;20640;-81
2023/05/16 09:44:46;;;;;;;5.53;5.13;;;18.20;80.30;18.60;96027.00;;;;5059723;28;20218;-81
2023/05/16 09:47:16;;;;;;;6.10;5.67;;;18.20;80.20;18.60;96028.00;;;;5077737;28;20193;-81
2023/05/16 09:49:44;;;;;;;6.50;5.90;;;18.20;80.40;18.60;96024.00;;;;5047238;28;20213;-81
2023/05/16 09:52:13;;;;;;;6.13;5.50;;;18.20;80.50;18.60;96017.00;;;;5053459;28;20213;-81
2023/05/16 09:54:41;;;;;;;5.80;5.30;;;18.20;80.30;18.60;96016.00;;;;5047902;28;20309;-80
2023/05/16 09:57:09;;;;;;;5.57;5.17;;;18.20;80.20;18.60;96023.00;;;;5054694;28;20200;-81
2023/05/16 09:59:39;;;;;;;6.63;6.10;;;18.20;80.30;18.60;96027.00;;;;5073049;28;20308;-82
2023/05/16 10:02:07;;;;;;;5.97;5.57;;;18.20;80.20;18.60;96027.00;;;;5060510;28;20693;-81
2023/05/16 10:04:35;;;;;;;6.50;5.87;;;18.20;80.30;18.60;96024.00;;;;5056378;28;20669;-82
2023/05/16 10:07:05;;;;;;;6.63;6.00;;;18.20;80.50;18.60;96024.00;;;;5057454;28;20203;-81
2023/05/16 10:09:34;;;;;;;6.70;6.20;;;18.20;80.50;18.60;96032.00;;;;5041492;28;20274;-81
2023/05/16 10:12:04;;;;;;;6.23;5.73;;;18.20;80.60;18.70;96025.00;;;;5078897;28;20210;-81
2023/05/16 10:14:36;;;;;;;6.27;5.87;;;18.30;81.00;18.70;96025.00;;;;5051502;28;20263;-81
2023/05/16 10:17:09;;;;;;;6.30;5.80;;;18.30;81.00;18.80;96027.00;;;;5064602;28;20215;-81
2023/05/16 10:19:39;;;;;;;6.33;5.73;;;18.30;80.80;18.80;96020.00;;;;5069573;28;20674;-81
2023/05/16 10:22:10;;;;;;;6.47;5.97;;;18.40;81.10;18.90;96028.00;;;;5025461;28;20842;-81
2023/05/16 10:24:48;;;;;;;6.87;6.37;;;18.40;81.20;19.00;96031.00;;;;5041660;28;20231;-81
2023/05/16 10:27:16;;;;;;;7.10;6.60;;;18.50;81.20;19.10;96029.00;;;;5039995;28;20231;-81
2023/05/16 10:29:45;;;;;;;6.87;6.27;;;18.50;81.40;19.20;96027.00;;;;5068409;28;20299;-80
2023/05/16 10:32:15;;;;;;;7.17;6.60;;;18.60;81.50;19.40;96028.00;;;;5049815;28;20290;-80
2023/05/16 10:34:43;;;;;;;6.87;6.27;;;18.70;81.60;19.50;96031.00;;;;5052731;28;20279;-80
2023/05/16 10:37:11;;;;;;;7.43;6.73;;;18.80;81.80;19.60;96032.00;;;;5058915;28;20207;-81
2023/05/16 10:39:40;;;;;;;7.20;6.60;;;18.80;81.70;19.60;96036.00;;;;5074407;28;20306;-81
2023/05/16 10:42:08;;;;;;;6.27;5.77;;;18.90;81.60;19.70;96040.00;;;;5073702;28;20225;-80
2023/05/16 10:44:39;;;;;;;6.07;5.57;;;19.00;81.40;19.70;96039.00;;;;5081671;28;20661;-81
2023/05/16 10:47:06;;;;;;;6.73;6.20;;;19.10;81.40;19.70;96039.00;;;;5077837;28;20216;-81
2023/05/16 10:49:35;;;;;;;6.80;6.20;;;19.10;81.20;19.80;96033.00;;;;5070025;28;20323;-80
2023/05/16 10:52:06;;;;;;;6.67;6.17;;;19.10;81.00;19.80;96031.00;;;;5074759;28;20192;-80
2023/05/16 10:54:39;;;;;;;6.50;6.03;;;19.20;80.90;19.80;96032.00;;;;5096987;28;20197;-80
2023/05/16 10:57:16;;;;;;;6.77;6.17;;;19.20;80.70;19.80;96035.00;;;;5061476;28;20283;-81
2023/05/16 10:59:48;;;;;;;6.97;6.37;;;19.30;80.60;19.80;96039.00;;;;5073015;28;20256;-81
2023/05/16 11:02:27;;;;;;;6.87;6.27;;;19.30;80.70;19.80;96042.00;;;;5046189;28;20220;-80